Time;durP1;ratioP1;P1;durP2;ratioP2;P2;SDS_P1;SDS_P2;PMS_P1;PMS_P2;Temp;Humidity;BMP_temperature;BMP_pressure;BME280_temperature;BME280_humidity;BME280_pressure;Samples;Min_cycle;Max_cycle;Signal;HPM_P1;HPM_P2
2022/10/11 00:01:19;;;;;;;5.20;3.20;;;13.40;99.90;;;;;;4222586;28;20239;-78
2022/10/11 00:03:21;;;;;;;6.23;3.10;;;13.40;99.90;;;;;;4213619;28;20213;-77
2022/10/11 00:05:22;;;;;;;9.07;3.30;;;13.40;99.90;;;;;;4219095;28;20200;-78
2022/10/11 00:07:24;;;;;;;7.93;3.73;;;13.50;99.90;;;;;;4216990;28;20291;-79
2022/10/11 00:09:26;;;;;;;8.70;3.83;;;13.50;99.90;;;;;;4228916;28;20211;-78
2022/10/11 00:11:28;;;;;;;8.63;4.13;;;13.40;99.90;;;;;;4218184;28;20270;-77
2022/10/11 00:13:30;;;;;;;6.43;3.90;;;13.50;99.90;;;;;;4228008;28;20218;-82
2022/10/11 00:15:34;;;;;;;6.50;3.97;;;13.40;99.90;;;;;;4213513;28;20208;-77
2022/10/11 00:17:35;;;;;;;9.60;4.57;;;13.40;99.90;;;;;;4213556;28;20291;-79
2022/10/11 00:19:37;;;;;;;9.77;4.47;;;13.40;99.90;;;;;;4218499;28;20515;-78
2022/10/11 00:21:39;;;;;;;9.10;4.67;;;13.40;99.90;;;;;;4220207;28;20313;-78
2022/10/11 00:23:42;;;;;;;7.27;4.57;;;13.40;99.90;;;;;;4214553;28;20215;-78
2022/10/11 00:25:43;;;;;;;7.57;4.20;;;13.40;99.90;;;;;;4221214;28;20215;-78
2022/10/11 00:27:45;;;;;;;6.63;4.40;;;13.40;99.90;;;;;;4219561;28;20224;-77
2022/10/11 00:29:47;;;;;;;7.57;3.60;;;13.40;99.90;;;;;;4215936;28;20299;-77
2022/10/11 00:31:50;;;;;;;7.87;3.83;;;13.40;99.90;;;;;;4221557;28;20221;-77
2022/10/11 00:33:53;;;;;;;8.73;3.60;;;13.40;99.90;;;;;;4213119;28;20248;-79
2022/10/11 00:35:55;;;;;;;6.97;3.37;;;13.40;99.90;;;;;;4210942;28;20209;-79
2022/10/11 00:37:57;;;;;;;4.80;3.03;;;13.40;99.90;;;;;;4218514;28;20214;-79
2022/10/11 00:39:59;;;;;;;7.43;2.97;;;13.30;99.90;;;;;;4223188;28;20232;-80
2022/10/11 00:42:00;;;;;;;8.00;3.03;;;13.30;99.90;;;;;;4221087;28;20275;-81
2022/10/11 00:44:15;;;;;;;5.10;2.80;;;13.30;99.90;;;;;;4218782;28;20273;-78
2022/10/11 00:46:29;;;;;;;7.50;2.60;;;13.30;99.90;;;;;;4220325;28;20294;-79
2022/10/11 00:48:39;;;;;;;8.40;2.73;;;13.30;99.90;;;;;;4220606;27;20355;-79
2022/10/11 00:50:42;;;;;;;6.27;2.40;;;13.30;99.90;;;;;;4223318;28;20233;-81
2022/10/11 00:52:49;;;;;;;4.73;2.53;;;13.20;99.90;;;;;;4222758;28;20204;-79
2022/10/11 00:54:51;;;;;;;3.90;2.13;;;13.20;99.90;;;;;;4219695;28;20218;-78
2022/10/11 00:56:57;;;;;;;8.27;2.10;;;13.20;99.90;;;;;;4221732;28;20618;-79
2022/10/11 00:59:02;;;;;;;4.27;2.30;;;13.20;99.90;;;;;;4226116;28;20226;-81
2022/10/11 01:01:04;;;;;;;5.83;1.73;;;13.10;99.90;;;;;;4227836;28;20232;-79
2022/10/11 01:03:06;;;;;;;5.13;1.77;;;13.10;99.90;;;;;;4216763;28;20201;-80
2022/10/11 01:05:13;;;;;;;8.37;1.60;;;13.00;99.90;;;;;;4216450;28;20227;-80
2022/10/11 01:07:17;;;;;;;7.77;1.70;;;13.00;99.90;;;;;;4219281;28;20210;-78
2022/10/11 01:09:20;;;;;;;4.57;1.70;;;13.00;99.90;;;;;;4220424;28;20215;-80
2022/10/11 01:11:25;;;;;;;9.00;1.40;;;12.90;99.90;;;;;;4222946;27;20204;-79
2022/10/11 01:13:42;;;;;;;3.57;1.43;;;12.90;99.90;;;;;;4224861;28;20469;-80
2022/10/11 01:15:49;;;;;;;5.43;1.53;;;12.80;99.90;;;;;;4222346;28;20249;-80
2022/10/11 01:17:59;;;;;;;5.63;1.30;;;12.80;99.90;;;;;;4224219;28;20215;-79
2022/10/11 01:20:29;;;;;;;6.93;1.40;;;12.70;99.90;;;;;;4214349;28;20440;-79
2022/10/11 01:23:01;;;;;;;7.03;1.70;;;12.70;99.90;;;;;;4226567;28;20233;-79
2022/10/11 01:25:15;;;;;;;6.50;1.33;;;12.60;99.90;;;;;;4212673;28;20744;-78
2022/10/11 01:27:36;;;;;;;4.90;2.20;;;12.60;99.90;;;;;;4222487;28;20227;-78
2022/10/11 01:29:49;;;;;;;5.37;1.47;;;12.50;99.90;;;;;;4219348;28;20318;-78
2022/10/11 01:31:57;;;;;;;4.23;1.20;;;12.50;99.90;;;;;;4219158;28;20216;-79
2022/10/11 01:34:05;;;;;;;3.40;1.20;;;12.60;99.90;;;;;;4223067;28;20661;-79
2022/10/11 01:36:14;;;;;;;4.77;1.37;;;12.50;99.90;;;;;;4219572;28;20638;-78
2022/10/11 01:38:23;;;;;;;4.20;1.20;;;12.40;99.90;;;;;;4218616;28;20432;-78
2022/10/11 01:40:31;;;;;;;4.17;1.20;;;12.40;99.90;;;;;;4223143;28;20235;-78
2022/10/11 01:42:35;;;;;;;3.67;1.33;;;12.30;99.90;;;;;;4225561;28;20259;-77
2022/10/11 01:44:39;;;;;;;4.10;1.23;;;12.30;99.90;;;;;;4230262;28;20248;-78
2022/10/11 01:46:41;;;;;;;7.77;1.60;;;12.20;99.90;;;;;;4228913;28;20219;-78
2022/10/11 01:48:52;;;;;;;7.13;1.97;;;12.10;99.90;;;;;;4224019;28;20273;-79
2022/10/11 01:50:57;;;;;;;2.30;1.03;;;12.00;99.90;;;;;;4217868;28;20298;-79
2022/10/11 01:53:05;;;;;;;6.70;1.47;;;12.00;99.90;;;;;;4243004;28;20711;-78
2022/10/11 01:55:18;;;;;;;4.60;1.30;;;12.00;99.90;;;;;;4233256;28;20205;-78
2022/10/11 01:57:50;;;;;;;6.73;1.63;;;11.80;99.90;;;;;;4231977;28;20250;-77
2022/10/11 02:00:02;;;;;;;4.67;1.70;;;11.80;99.90;;;;;;4224350;28;20239;-78
2022/10/11 02:02:13;;;;;;;3.27;1.17;;;11.80;99.90;;;;;;4218478;28;20611;-77
2022/10/11 02:04:25;;;;;;;4.43;1.40;;;11.70;99.90;;;;;;4228824;28;20212;-79
2022/10/11 02:06:35;;;;;;;6.97;1.40;;;11.70;99.90;;;;;;4230256;28;20324;-78
2022/10/11 02:08:42;;;;;;;4.17;1.47;;;11.70;99.90;;;;;;4218185;28;20639;-78
2022/10/11 02:10:49;;;;;;;3.73;1.50;;;11.70;99.90;;;;;;4220273;28;20260;-79
2022/10/11 02:12:58;;;;;;;4.50;1.37;;;11.60;99.90;;;;;;4221295;28;20219;-79
2022/10/11 02:15:07;;;;;;;3.43;1.73;;;11.60;99.90;;;;;;4222125;28;20195;-79
2022/10/11 02:17:13;;;;;;;3.40;1.30;;;11.50;99.90;;;;;;4221596;28;20753;-80
2022/10/11 02:19:19;;;;;;;3.90;1.40;;;11.50;99.90;;;;;;4222845;28;20203;-80
2022/10/11 02:21:23;;;;;;;3.43;1.07;;;11.40;99.90;;;;;;4222050;28;20231;-78
2022/10/11 02:23:29;;;;;;;4.67;1.33;;;11.50;99.90;;;;;;4221326;28;20608;-78
2022/10/11 02:25:35;;;;;;;2.63;1.40;;;11.40;99.90;;;;;;4218285;28;20273;-79
2022/10/11 02:27:39;;;;;;;8.77;1.60;;;11.30;99.90;;;;;;4214135;28;20242;-79
2022/10/11 02:29:44;;;;;;;2.47;1.20;;;11.30;99.90;;;;;;4218306;28;20247;-79
2022/10/11 02:31:48;;;;;;;4.13;1.37;;;11.30;99.90;;;;;;4221305;28;20206;-79
2022/10/11 02:33:56;;;;;;;3.77;1.30;;;11.20;99.90;;;;;;4217813;28;20246;-79
2022/10/11 02:36:05;;;;;;;2.03;1.00;;;11.20;99.90;;;;;;4227776;28;20320;-79
2022/10/11 02:38:15;;;;;;;3.17;1.20;;;11.10;99.90;;;;;;4222781;28;20241;-79
2022/10/11 02:40:21;;;;;;;2.60;1.30;;;11.10;99.90;;;;;;4217823;28;20226;-80
2022/10/11 02:42:28;;;;;;;4.10;1.60;;;11.00;99.90;;;;;;4222953;28;20299;-79
2022/10/11 02:44:34;;;;;;;4.10;1.30;;;11.00;99.90;;;;;;4233101;28;20221;-80
2022/10/11 02:46:38;;;;;;;2.53;1.10;;;11.00;99.90;;;;;;4224271;28;20483;-79
2022/10/11 02:48:40;;;;;;;3.10;1.30;;;10.90;99.90;;;;;;4228139;28;20225;-79
2022/10/11 02:50:43;;;;;;;5.10;1.40;;;10.90;99.90;;;;;;4223250;28;20261;-79
2022/10/11 02:52:46;;;;;;;4.63;1.10;;;10.80;99.90;;;;;;4227626;28;20652;-78
2022/10/11 02:54:48;;;;;;;3.57;1.20;;;10.80;99.90;;;;;;4222616;28;20226;-79
2022/10/11 02:56:50;;;;;;;4.43;1.30;;;10.70;99.90;;;;;;4218170;28;20220;-79
2022/10/11 02:58:52;;;;;;;4.57;1.57;;;10.70;99.90;;;;;;4221492;28;20207;-79
2022/10/11 03:00:54;;;;;;;2.40;1.10;;;10.60;99.90;;;;;;4221385;28;20230;-79
2022/10/11 03:02:55;;;;;;;6.30;1.77;;;10.60;99.90;;;;;;4220335;28;20217;-79
2022/10/11 03:04:57;;;;;;;3.60;1.30;;;10.50;99.90;;;;;;4221750;28;20293;-79
2022/10/11 03:06:59;;;;;;;4.03;1.40;;;10.40;99.90;;;;;;4216544;28;20211;-79
2022/10/11 03:09:02;;;;;;;3.03;1.33;;;10.50;99.90;;;;;;4221498;28;20205;-79
2022/10/11 03:11:04;;;;;;;4.07;1.40;;;10.40;99.90;;;;;;4221980;28;20226;-79
2022/10/11 03:13:06;;;;;;;3.93;1.50;;;10.40;99.90;;;;;;4225438;28;20212;-79
2022/10/11 03:15:08;;;;;;;2.87;1.30;;;10.40;99.90;;;;;;4222039;28;20208;-79
2022/10/11 03:17:10;;;;;;;3.20;1.20;;;10.30;99.90;;;;;;4220155;28;20244;-79
2022/10/11 03:19:12;;;;;;;2.37;1.50;;;10.30;99.90;;;;;;4219564;28;20291;-78
2022/10/11 03:21:14;;;;;;;5.23;1.50;;;10.20;99.90;;;;;;4220372;28;20288;-78
2022/10/11 03:23:16;;;;;;;3.87;1.27;;;10.20;99.90;;;;;;4226706;28;20204;-78
2022/10/11 03:25:19;;;;;;;2.47;1.30;;;10.10;99.90;;;;;;4223276;28;20228;-78
2022/10/11 03:27:21;;;;;;;4.73;1.47;;;10.10;99.90;;;;;;4226177;28;20248;-78
2022/10/11 03:29:23;;;;;;;3.83;1.37;;;10.00;99.90;;;;;;4222142;28;20224;-79
2022/10/11 03:31:25;;;;;;;4.00;1.27;;;10.00;99.90;;;;;;4222428;28;20821;-79
2022/10/11 03:33:27;;;;;;;2.37;1.30;;;10.00;99.90;;;;;;4224793;28;20921;-79
2022/10/11 03:35:29;;;;;;;6.80;1.40;;;9.90;99.90;;;;;;4226306;28;20224;-79
2022/10/11 03:37:31;;;;;;;2.70;1.30;;;9.80;99.90;;;;;;4222214;28;20237;-80
2022/10/11 03:39:32;;;;;;;4.73;1.53;;;9.80;99.90;;;;;;4225848;28;20534;-79
2022/10/11 03:41:36;;;;;;;5.23;1.40;;;9.80;99.90;;;;;;4225848;28;20509;-79
2022/10/11 03:43:38;;;;;;;3.90;1.50;;;9.70;99.90;;;;;;4226974;28;20966;-80
2022/10/11 03:45:41;;;;;;;2.87;1.30;;;9.70;99.90;;;;;;4223575;28;20541;-79
2022/10/11 03:47:43;;;;;;;5.47;1.53;;;9.70;99.90;;;;;;4222471;28;20455;-78
2022/10/11 03:49:44;;;;;;;6.33;2.13;;;9.60;99.90;;;;;;4230697;28;20522;-78
2022/10/11 03:51:46;;;;;;;3.40;1.57;;;9.60;99.90;;;;;;4228392;28;20450;-78
2022/10/11 03:53:48;;;;;;;5.27;1.53;;;9.60;99.90;;;;;;4228369;28;20470;-78
2022/10/11 03:55:53;;;;;;;5.53;1.60;;;9.50;99.90;;;;;;4231849;28;20209;-78
2022/10/11 03:57:56;;;;;;;5.70;1.70;;;9.50;99.90;;;;;;4232296;28;20458;-79
2022/10/11 03:59:58;;;;;;;4.83;1.80;;;9.40;99.90;;;;;;4224936;28;20236;-79
2022/10/11 04:02:00;;;;;;;5.57;2.07;;;9.40;99.90;;;;;;4225699;28;20249;-79
2022/10/11 04:04:01;;;;;;;4.53;1.70;;;9.40;99.90;;;;;;4229170;28;20459;-79
2022/10/11 04:06:03;;;;;;;5.73;1.70;;;9.30;99.90;;;;;;4229227;28;20213;-79
2022/10/11 04:08:05;;;;;;;3.77;1.53;;;9.30;99.90;;;;;;4227585;28;20486;-79
2022/10/11 04:10:08;;;;;;;4.80;1.53;;;9.30;99.90;;;;;;4231310;28;20230;-79
2022/10/11 04:12:10;;;;;;;4.10;1.87;;;9.20;99.90;;;;;;4228595;28;20520;-78
2022/10/11 04:14:13;;;;;;;4.63;1.50;;;9.20;99.90;;;;;;4223960;28;20998;-78
2022/10/11 04:16:15;;;;;;;5.17;1.63;;;9.20;99.90;;;;;;4223774;28;20477;-79
2022/10/11 04:18:17;;;;;;;4.13;1.60;;;9.10;99.90;;;;;;4226926;28;20536;-78
2022/10/11 04:20:19;;;;;;;4.73;1.70;;;9.10;99.90;;;;;;4227256;28;20470;-79
2022/10/11 04:22:20;;;;;;;6.37;1.83;;;9.10;99.90;;;;;;4221345;28;20483;-78
2022/10/11 04:24:24;;;;;;;3.90;1.50;;;9.10;99.90;;;;;;4226089;28;20454;-79
2022/10/11 04:26:26;;;;;;;2.87;1.40;;;9.00;99.90;;;;;;4220362;28;21287;-79
2022/10/11 04:28:28;;;;;;;3.70;1.37;;;9.00;99.90;;;;;;4226775;28;20442;-79
2022/10/11 04:30:31;;;;;;;3.63;1.80;;;8.90;99.90;;;;;;4220431;28;20510;-79
2022/10/11 04:32:33;;;;;;;3.80;1.40;;;8.90;99.90;;;;;;4226187;28;20575;-78
2022/10/11 04:34:35;;;;;;;5.80;1.63;;;8.90;99.90;;;;;;4222899;28;20454;-79
2022/10/11 04:36:37;;;;;;;5.77;1.60;;;8.90;99.90;;;;;;4220369;28;20438;-78
2022/10/11 04:38:39;;;;;;;9.10;2.57;;;8.80;99.90;;;;;;4225596;28;20443;-79
2022/10/11 04:40:41;;;;;;;3.67;1.70;;;8.80;99.90;;;;;;4230352;28;20604;-79
2022/10/11 04:42:43;;;;;;;7.47;1.77;;;8.70;99.90;;;;;;4222154;28;20509;-80
2022/10/11 04:44:45;;;;;;;3.83;1.47;;;8.70;99.90;;;;;;4226691;28;20505;-79
2022/10/11 04:46:48;;;;;;;4.10;1.80;;;8.80;99.90;;;;;;4229138;28;20457;-79
2022/10/11 04:48:51;;;;;;;3.10;1.50;;;8.70;99.90;;;;;;4235584;28;20510;-79
2022/10/11 04:50:53;;;;;;;3.83;1.77;;;8.60;99.90;;;;;;4239227;28;20469;-79
2022/10/11 04:52:54;;;;;;;4.57;1.50;;;8.60;99.90;;;;;;4234258;28;20462;-78
2022/10/11 04:54:56;;;;;;;4.63;2.23;;;8.60;99.90;;;;;;4232640;28;20447;-79
2022/10/11 04:56:58;;;;;;;7.07;1.80;;;8.60;99.90;;;;;;4226358;28;20450;-79
2022/10/11 04:59:00;;;;;;;4.17;2.13;;;8.60;99.90;;;;;;4227929;28;20468;-78
2022/10/11 05:01:02;;;;;;;9.83;2.93;;;8.50;99.90;;;;;;4231775;28;20481;-78
2022/10/11 05:03:06;;;;;;;6.77;2.57;;;8.50;99.90;;;;;;4230892;28;20478;-78
2022/10/11 05:05:08;;;;;;;6.73;2.40;;;8.50;99.90;;;;;;4225998;28;20991;-77
2022/10/11 05:07:10;;;;;;;5.30;2.17;;;8.40;99.90;;;;;;4220376;28;20476;-78
2022/10/11 05:09:13;;;;;;;5.57;2.20;;;8.50;99.90;;;;;;4224929;28;20543;-78
2022/10/11 05:11:16;;;;;;;4.67;1.90;;;8.40;99.90;;;;;;4218161;28;20473;-78
2022/10/11 05:13:17;;;;;;;4.83;1.93;;;8.30;99.90;;;;;;4221322;28;20838;-79
2022/10/11 05:15:19;;;;;;;5.67;2.73;;;8.40;99.90;;;;;;4220374;28;21261;-79
2022/10/11 05:17:21;;;;;;;4.90;2.20;;;8.30;99.90;;;;;;4222350;28;20463;-79
2022/10/11 05:19:25;;;;;;;4.97;2.57;;;8.30;99.90;;;;;;4223475;28;20471;-79
2022/10/11 05:21:29;;;;;;;4.77;2.30;;;8.20;99.90;;;;;;4222549;28;20567;-79
2022/10/11 05:23:32;;;;;;;7.23;2.47;;;8.20;99.90;;;;;;4219163;28;20472;-79
2022/10/11 05:25:34;;;;;;;8.50;2.40;;;8.20;99.90;;;;;;4223916;28;21205;-79
2022/10/11 05:27:36;;;;;;;5.10;2.10;;;8.20;99.90;;;;;;4219712;28;20462;-79
2022/10/11 05:29:38;;;;;;;5.10;2.20;;;8.20;99.90;;;;;;4221139;28;20494;-79
2022/10/11 05:31:40;;;;;;;5.30;1.90;;;8.20;99.90;;;;;;4216990;28;21028;-79
2022/10/11 05:33:42;;;;;;;5.47;2.20;;;8.10;99.90;;;;;;4221630;28;20809;-79
2022/10/11 05:35:46;;;;;;;4.50;2.30;;;8.10;99.90;;;;;;4220984;28;20485;-79
2022/10/11 05:37:48;;;;;;;4.83;1.90;;;8.10;99.90;;;;;;4219279;28;20461;-79
2022/10/11 05:39:50;;;;;;;3.97;2.07;;;8.10;99.90;;;;;;4225431;28;20489;-79
2022/10/11 05:41:52;;;;;;;4.77;2.20;;;8.00;99.90;;;;;;4223628;28;20446;-79
2022/10/11 05:43:53;;;;;;;4.53;1.70;;;8.20;99.90;;;;;;4218709;28;20478;-79
2022/10/11 05:45:56;;;;;;;5.83;2.20;;;7.90;99.90;;;;;;4220263;28;20897;-77
2022/10/11 05:47:58;;;;;;;2.60;1.63;;;8.00;99.90;;;;;;4219178;28;20501;-80
2022/10/11 05:50:00;;;;;;;7.53;2.10;;;7.90;99.90;;;;;;4220282;28;20998;-80
2022/10/11 05:52:05;;;;;;;5.07;2.20;;;7.90;99.90;;;;;;4220230;28;20481;-79
2022/10/11 05:54:08;;;;;;;5.17;2.20;;;7.90;99.90;;;;;;4211914;28;20476;-78
2022/10/11 05:56:19;;;;;;;6.57;2.80;;;7.90;99.90;;;;;;4223526;28;20489;-79
2022/10/11 05:58:21;;;;;;;3.47;1.70;;;7.90;99.90;;;;;;4223714;28;20456;-79
2022/10/11 06:00:24;;;;;;;3.77;1.80;;;7.90;99.90;;;;;;4215963;28;20462;-79
2022/10/11 06:02:26;;;;;;;3.70;1.67;;;7.90;99.90;;;;;;4219532;28;20496;-80
2022/10/11 06:04:28;;;;;;;2.87;1.90;;;7.90;99.90;;;;;;4229045;28;20493;-79
2022/10/11 06:06:30;;;;;;;4.33;1.80;;;7.90;99.90;;;;;;4222097;28;20800;-79
2022/10/11 06:08:33;;;;;;;4.27;1.90;;;7.90;99.90;;;;;;4216974;28;21002;-79
2022/10/11 06:10:36;;;;;;;3.93;1.70;;;7.90;99.90;;;;;;4222895;28;20503;-79
2022/10/11 06:12:38;;;;;;;7.60;2.03;;;7.80;99.90;;;;;;4214581;28;20458;-79
2022/10/11 06:14:40;;;;;;;3.80;1.83;;;7.80;99.90;;;;;;4220192;28;20483;-79
2022/10/11 06:16:42;;;;;;;5.27;1.90;;;7.80;99.90;;;;;;4218740;28;20875;-79
2022/10/11 06:18:44;;;;;;;5.90;2.07;;;7.80;99.90;;;;;;4221143;28;20461;-80
2022/10/11 06:20:46;;;;;;;5.37;1.80;;;7.80;99.90;;;;;;4226085;28;20886;-80
2022/10/11 06:22:48;;;;;;;2.80;1.77;;;7.80;99.90;;;;;;4220218;28;20532;-79
2022/10/11 06:24:51;;;;;;;6.47;2.13;;;7.80;99.90;;;;;;4219269;28;20829;-79
2022/10/11 06:26:54;;;;;;;7.20;1.80;;;7.80;99.90;;;;;;4223556;28;20893;-79
2022/10/11 06:28:56;;;;;;;6.37;2.07;;;7.80;99.90;;;;;;4220460;28;20441;-79
2022/10/11 06:30:58;;;;;;;6.63;2.10;;;7.80;99.90;;;;;;4220275;28;20477;-81
2022/10/11 06:33:00;;;;;;;4.60;2.27;;;7.80;99.90;;;;;;4226971;28;20449;-80
2022/10/11 06:35:04;;;;;;;5.50;2.07;;;7.80;99.90;;;;;;4227074;28;20510;-80
2022/10/11 06:37:06;;;;;;;3.90;1.67;;;7.80;99.90;;;;;;4221490;28;20446;-79
2022/10/11 06:39:08;;;;;;;4.07;2.00;;;7.90;99.90;;;;;;4228016;28;20465;-78
2022/10/11 06:41:13;;;;;;;5.00;1.73;;;7.80;99.90;;;;;;4228921;28;20466;-80
2022/10/11 06:43:15;;;;;;;3.00;2.00;;;7.80;99.90;;;;;;4232214;28;20567;-79
2022/10/11 06:45:17;;;;;;;3.20;2.10;;;7.90;99.90;;;;;;4227564;28;20454;-79
2022/10/11 06:47:19;;;;;;;8.47;2.20;;;7.90;99.90;;;;;;4227923;28;20449;-79
2022/10/11 06:49:21;;;;;;;6.00;1.90;;;7.80;99.90;;;;;;4232080;28;20469;-79
2022/10/11 06:51:24;;;;;;;3.00;1.90;;;7.90;99.90;;;;;;4225974;28;20522;-78
2022/10/11 06:53:27;;;;;;;6.30;2.30;;;7.90;99.90;;;;;;4220235;28;20454;-79
2022/10/11 06:55:29;;;;;;;5.23;2.30;;;7.90;99.90;;;;;;4222866;28;20457;-81
2022/10/11 06:57:32;;;;;;;6.37;2.40;;;7.90;99.90;;;;;;4228871;28;20476;-79
2022/10/11 06:59:34;;;;;;;7.30;2.37;;;7.90;99.90;;;;;;4226458;28;20477;-79
2022/10/11 07:01:36;;;;;;;4.80;2.20;;;7.90;99.90;;;;;;4229596;28;20464;-79
2022/10/11 07:03:38;;;;;;;4.83;2.23;;;7.90;99.90;;;;;;4235674;28;20571;-81
2022/10/11 07:05:40;;;;;;;4.07;2.10;;;8.00;99.90;;;;;;4239096;27;21296;-80
2022/10/11 07:07:42;;;;;;;8.13;2.43;;;8.00;99.90;;;;;;4231524;28;20511;-78
2022/10/11 07:09:44;;;;;;;8.93;2.53;;;8.00;99.90;;;;;;4226913;28;20477;-80
2022/10/11 07:11:47;;;;;;;5.67;2.63;;;8.00;99.90;;;;;;4232482;28;20468;-80
2022/10/11 07:13:52;;;;;;;6.33;2.77;;;8.00;99.90;;;;;;4220439;28;20453;-80
2022/10/11 07:15:54;;;;;;;8.07;2.70;;;8.70;99.90;;;;;;4226996;28;20466;-79
2022/10/11 07:17:56;;;;;;;6.33;2.63;;;8.10;99.90;;;;;;4222940;28;20451;-79
2022/10/11 07:19:57;;;;;;;7.03;3.00;;;8.10;99.90;;;;;;4224198;28;20485;-79
2022/10/11 07:22:00;;;;;;;9.30;2.70;;;8.10;99.90;;;;;;4223430;28;20465;-79
2022/10/11 07:24:02;;;;;;;5.53;2.43;;;8.20;99.90;;;;;;4220091;28;20487;-79
2022/10/11 07:26:05;;;;;;;10.67;2.83;;;8.20;99.90;;;;;;4221353;28;20553;-78
2022/10/11 07:28:07;;;;;;;8.77;3.10;;;8.20;99.90;;;;;;4220808;28;20451;-79
2022/10/11 07:30:11;;;;;;;8.17;3.30;;;8.30;99.90;;;;;;4221023;28;20512;-80
2022/10/11 07:32:15;;;;;;;7.60;2.97;;;8.30;99.90;;;;;;4220527;28;21461;-79
2022/10/11 07:34:18;;;;;;;6.83;2.37;;;8.30;99.90;;;;;;4219251;28;20440;-78
2022/10/11 07:36:22;;;;;;;8.63;2.63;;;8.40;99.90;;;;;;4220479;28;20475;-79
2022/10/11 07:38:23;;;;;;;11.50;3.03;;;8.40;99.90;;;;;;4221482;28;20526;-82
2022/10/11 07:40:25;;;;;;;8.97;3.07;;;8.40;99.90;;;;;;4231170;27;20485;-83
2022/10/11 07:42:27;;;;;;;8.80;2.77;;;8.50;99.90;;;;;;4224952;28;21068;-78
2022/10/11 07:44:29;;;;;;;9.97;2.43;;;8.50;99.90;;;;;;4233801;28;20485;-79
2022/10/11 07:46:33;;;;;;;7.47;2.33;;;8.60;99.90;;;;;;4246387;27;20782;-79
2022/10/11 07:48:36;;;;;;;8.77;3.03;;;8.60;99.90;;;;;;4239218;28;20462;-78
2022/10/11 07:50:38;;;;;;;9.50;2.47;;;8.60;99.90;;;;;;4225294;27;21186;-80
2022/10/11 07:52:40;;;;;;;8.07;2.30;;;8.70;99.90;;;;;;4221206;28;20450;-78
2022/10/11 07:54:42;;;;;;;10.00;2.70;;;8.70;99.90;;;;;;4217322;28;20554;-79
2022/10/11 07:56:44;;;;;;;5.83;2.40;;;8.70;99.90;;;;;;4218266;28;20466;-79
2022/10/11 07:58:50;;;;;;;7.17;2.53;;;8.70;99.90;;;;;;4222850;28;21270;-79
2022/10/11 08:00:53;;;;;;;13.03;2.93;;;8.80;99.90;;;;;;4225211;28;20229;-79
2022/10/11 08:02:56;;;;;;;8.20;2.20;;;8.80;99.90;;;;;;4234957;27;20438;-79
2022/10/11 08:04:58;;;;;;;8.33;2.43;;;8.90;99.90;;;;;;4217470;28;20459;-81
2022/10/11 08:07:00;;;;;;;5.23;2.40;;;8.90;99.90;;;;;;4220405;28;20459;-81
2022/10/11 08:09:04;;;;;;;9.23;2.67;;;9.00;99.90;;;;;;4220448;28;21034;-78
2022/10/11 08:11:06;;;;;;;9.10;2.40;;;9.10;99.90;;;;;;4219264;28;20255;-79
2022/10/11 08:13:08;;;;;;;9.53;2.57;;;9.10;99.90;;;;;;4221593;28;20472;-81
2022/10/11 08:15:11;;;;;;;9.97;2.20;;;9.20;99.90;;;;;;4222020;28;20438;-78
2022/10/11 08:17:13;;;;;;;9.90;2.43;;;9.30;99.90;;;;;;4223195;28;20239;-80
2022/10/11 08:19:17;;;;;;;15.47;2.53;;;9.30;99.90;;;;;;4237100;27;20445;-80
2022/10/11 08:21:19;;;;;;;6.97;2.03;;;9.40;99.90;;;;;;4216243;28;20490;-79
2022/10/11 08:23:21;;;;;;;7.63;1.97;;;9.40;99.90;;;;;;4221632;28;20908;-80
2022/10/11 08:25:23;;;;;;;10.70;1.83;;;9.50;99.90;;;;;;4215783;28;20518;-79
2022/10/11 08:27:25;;;;;;;13.27;2.60;;;9.50;99.90;;;;;;4218198;28;20209;-78
2022/10/11 08:29:27;;;;;;;10.80;2.00;;;9.60;99.90;;;;;;4216269;28;20206;-80
2022/10/11 08:31:34;;;;;;;6.87;2.13;;;9.70;99.90;;;;;;4223786;28;20200;-81
2022/10/11 08:33:35;;;;;;;9.33;2.50;;;9.80;99.90;;;;;;4219879;28;20234;-80
2022/10/11 08:35:39;;;;;;;6.10;1.80;;;9.80;99.90;;;;;;4221305;28;20250;-82
2022/10/11 08:37:41;;;;;;;10.10;1.97;;;9.90;99.90;;;;;;4222198;28;20205;-80
2022/10/11 08:39:43;;;;;;;7.97;2.17;;;9.90;99.90;;;;;;4222898;28;20255;-80
2022/10/11 08:41:49;;;;;;;6.57;1.90;;;10.00;99.90;;;;;;4219535;28;20585;-79
2022/10/11 08:44:01;;;;;;;8.70;1.80;;;10.10;99.90;;;;;;4217785;28;20224;-79
2022/10/11 08:46:06;;;;;;;7.03;1.97;;;10.10;99.90;;;;;;4219245;28;20215;-80
2022/10/11 08:48:16;;;;;;;11.00;2.23;;;10.20;99.90;;;;;;4222040;28;20205;-79
2022/10/11 08:50:20;;;;;;;8.67;1.80;;;10.20;99.90;;;;;;4225310;28;20266;-81
2022/10/11 08:52:46;;;;;;;8.17;1.80;;;10.30;99.90;;;;;;4229195;28;20199;-79
2022/10/11 08:54:53;;;;;;;6.70;1.60;;;10.40;99.90;;;;;;4230664;28;20265;-83
2022/10/11 08:56:55;;;;;;;5.27;1.40;;;10.50;99.90;;;;;;4229340;28;20265;-80
2022/10/11 08:59:01;;;;;;;6.63;1.67;;;10.50;99.90;;;;;;4228130;28;20692;-80
2022/10/11 09:01:06;;;;;;;5.80;1.40;;;10.60;99.90;;;;;;4233765;28;20314;-79
2022/10/11 09:03:21;;;;;;;9.80;1.60;;;10.60;99.90;;;;;;4230482;28;20263;-79
2022/10/11 09:05:27;;;;;;;4.03;1.20;;;10.70;99.90;;;;;;4227917;28;20210;-83
2022/10/11 09:07:41;;;;;;;5.43;1.50;;;10.70;99.90;;;;;;4228119;28;20305;-80
2022/10/11 09:10:01;;;;;;;6.23;1.80;;;10.80;99.90;;;;;;4224091;28;20298;-79
2022/10/11 09:12:14;;;;;;;8.17;1.60;;;10.80;99.90;;;;;;4227367;28;20700;-79
2022/10/11 09:14:39;;;;;;;7.53;1.53;;;11.00;99.90;;;;;;4229713;28;20198;-80
2022/10/11 09:16:53;;;;;;;5.87;1.10;;;10.90;99.90;;;;;;4223348;28;20298;-78
2022/10/11 09:19:27;;;;;;;10.40;1.33;;;11.00;99.90;;;;;;4228574;28;20195;-80
2022/10/11 09:21:40;;;;;;;8.23;1.27;;;11.10;99.90;;;;;;4227680;28;20206;-82
2022/10/11 09:23:58;;;;;;;8.43;1.40;;;11.20;99.90;;;;;;4224302;28;20255;-80
2022/10/11 09:26:05;;;;;;;8.73;1.73;;;11.20;99.90;;;;;;4224317;28;20714;-77
2022/10/11 09:28:16;;;;;;;8.53;1.83;;;11.30;99.90;;;;;;4223936;28;20203;-78
2022/10/11 09:30:20;;;;;;;4.77;1.30;;;11.40;99.90;;;;;;4225752;28;20245;-82
2022/10/11 09:32:22;;;;;;;5.10;1.37;;;11.50;99.90;;;;;;4218053;28;20230;-79
2022/10/11 09:34:31;;;;;;;10.93;1.60;;;11.50;99.90;;;;;;4222044;28;20286;-79
2022/10/11 09:36:39;;;;;;;7.53;1.73;;;11.60;99.90;;;;;;4218463;28;20215;-79
2022/10/11 09:38:45;;;;;;;5.97;1.50;;;11.70;99.90;;;;;;4220235;28;20206;-79
2022/10/11 09:41:07;;;;;;;8.07;1.80;;;11.70;99.90;;;;;;4223167;28;20231;-83
2022/10/11 09:43:09;;;;;;;5.73;1.53;;;12.10;99.90;;;;;;4223109;28;20576;-78
2022/10/11 09:45:16;;;;;;;8.87;1.40;;;11.90;99.90;;;;;;4221781;28;20700;-82
2022/10/11 09:47:21;;;;;;;3.37;1.00;;;12.00;99.90;;;;;;4222718;28;20732;-79
2022/10/11 09:49:29;;;;;;;2.97;1.10;;;12.20;99.90;;;;;;4216690;28;20231;-78
2022/10/11 09:51:32;;;;;;;4.00;0.80;;;12.20;99.90;;;;;;4224709;28;20673;-82
2022/10/11 09:53:54;;;;;;;4.80;1.13;;;12.30;99.90;;;;;;4223214;28;20257;-82
2022/10/11 09:56:04;;;;;;;9.83;1.40;;;12.30;99.90;;;;;;4224018;28;20246;-79
2022/10/11 09:58:24;;;;;;;2.83;0.90;;;12.40;99.90;;;;;;4214657;28;20731;-81
2022/10/11 10:00:28;;;;;;;5.53;0.90;;;12.50;99.90;;;;;;4220225;28;20236;-79
2022/10/11 10:02:37;;;;;;;3.27;1.07;;;12.50;99.90;;;;;;4224191;28;20319;-79
2022/10/11 10:04:55;;;;;;;6.97;1.37;;;12.60;99.90;;;;;;4221281;28;20223;-82
2022/10/11 10:07:11;;;;;;;3.40;1.00;;;12.70;99.90;;;;;;4227238;28;20243;-82
2022/10/11 10:09:30;;;;;;;3.77;1.10;;;12.70;99.90;;;;;;4228567;28;20211;-78
2022/10/11 10:11:37;;;;;;;10.43;2.03;;;12.80;99.90;;;;;;4223771;28;20257;-78
2022/10/11 10:13:44;;;;;;;7.37;1.20;;;12.80;99.90;;;;;;4222349;27;20677;-78
2022/10/11 10:15:49;;;;;;;4.13;1.00;;;12.90;99.90;;;;;;4222367;28;20403;-78
2022/10/11 10:17:53;;;;;;;5.80;1.30;;;13.00;99.90;;;;;;4224975;28;21796;-79
2022/10/11 10:19:59;;;;;;;3.43;1.00;;;13.10;99.90;;;;;;4230686;28;20620;-79
2022/10/11 10:22:00;;;;;;;3.83;0.80;;;13.20;99.90;;;;;;4219509;28;20239;-79
2022/10/11 10:24:12;;;;;;;4.80;1.10;;;13.40;99.90;;;;;;4224658;28;20244;-80
2022/10/11 10:26:17;;;;;;;7.17;1.30;;;13.50;99.90;;;;;;4221716;28;20776;-79
2022/10/11 10:28:23;;;;;;;3.10;1.00;;;13.60;99.90;;;;;;4219283;28;20685;-78
2022/10/11 10:30:26;;;;;;;3.87;0.90;;;13.70;99.90;;;;;;4215995;28;20229;-81
2022/10/11 10:32:32;;;;;;;3.97;1.40;;;13.90;99.90;;;;;;4228960;27;20622;-79
2022/10/11 10:34:37;;;;;;;6.87;1.20;;;14.00;99.90;;;;;;4224859;27;20208;-81
2022/10/11 10:36:44;;;;;;;7.40;1.20;;;14.10;99.90;;;;;;4229580;28;20415;-81
2022/10/11 10:38:51;;;;;;;5.63;1.37;;;14.20;99.90;;;;;;4223177;28;21318;-80
2022/10/11 10:40:56;;;;;;;5.10;1.37;;;14.40;99.90;;;;;;4230385;27;20308;-82
2022/10/11 10:42:58;;;;;;;3.20;1.37;;;14.50;99.90;;;;;;4227261;28;20324;-79
2022/10/11 10:45:02;;;;;;;5.60;1.27;;;14.70;99.90;;;;;;4223168;28;20906;-79
2022/10/11 10:47:10;;;;;;;3.70;1.27;;;14.70;99.90;;;;;;4223716;28;20863;-82
2022/10/11 10:49:16;;;;;;;4.30;1.07;;;14.80;99.90;;;;;;4220623;28;20271;-83
2022/10/11 10:51:27;;;;;;;4.67;1.20;;;15.00;99.90;;;;;;4221139;28;20306;-81
2022/10/11 10:53:34;;;;;;;4.30;1.17;;;15.00;99.90;;;;;;4226411;28;20299;-78